sensor_id;sensor_type;location;lat;lon;timestamp;temperature;humidity
68354;DHT22;55274;43.060;25.618;2023-06-22T00:00:49;20.90;99.90
68354;DHT22;55274;43.060;25.618;2023-06-22T00:03:15;20.90;99.90
68354;DHT22;55274;43.060;25.618;2023-06-22T00:05:41;20.90;99.90
68354;DHT22;55274;43.060;25.618;2023-06-22T00:08:06;20.90;99.90
68354;DHT22;55274;43.060;25.618;2023-06-22T00:10:32;20.90;99.90
68354;DHT22;55274;43.060;25.618;2023-06-22T00:12:58;20.80;99.90
68354;DHT22;55274;43.060;25.618;2023-06-22T00:15:24;20.70;99.90
68354;DHT22;55274;43.060;25.618;2023-06-22T00:17:51;20.70;99.90
68354;DHT22;55274;43.060;25.618;2023-06-22T00:20:16;20.70;99.90
68354;DHT22;55274;43.060;25.618;2023-06-22T00:22:44;20.60;99.90
68354;DHT22;55274;43.060;25.618;2023-06-22T00:25:11;20.60;99.90
68354;DHT22;55274;43.060;25.618;2023-06-22T00:27:37;20.60;99.90
68354;DHT22;55274;43.060;25.618;2023-06-22T00:30:03;20.50;99.90
68354;DHT22;55274;43.060;25.618;2023-06-22T00:32:29;20.50;99.90
68354;DHT22;55274;43.060;25.618;2023-06-22T00:34:55;20.50;99.90
68354;DHT22;55274;43.060;25.618;2023-06-22T00:37:21;20.50;99.90
68354;DHT22;55274;43.060;25.618;2023-06-22T00:39:51;20.50;99.90
68354;DHT22;55274;43.060;25.618;2023-06-22T00:42:17;20.50;99.90
68354;DHT22;55274;43.060;25.618;2023-06-22T00:44:43;20.50;99.90
68354;DHT22;55274;43.060;25.618;2023-06-22T00:47:13;20.50;99.90
68354;DHT22;55274;43.060;25.618;2023-06-22T00:49:39;20.50;99.90
68354;DHT22;55274;43.060;25.618;2023-06-22T00:52:06;20.40;99.90
68354;DHT22;55274;43.060;25.618;2023-06-22T00:54:43;20.40;99.90
68354;DHT22;55274;43.060;25.618;2023-06-22T00:57:15;20.40;99.90
68354;DHT22;55274;43.060;25.618;2023-06-22T00:59:45;20.40;99.90
68354;DHT22;55274;43.060;25.618;2023-06-22T01:02:11;20.30;99.90
68354;DHT22;55274;43.060;25.618;2023-06-22T01:04:38;20.30;99.90
68354;DHT22;55274;43.060;25.618;2023-06-22T01:12:34;20.10;99.90
68354;DHT22;55274;43.060;25.618;2023-06-22T01:15:23;20.10;99.90
68354;DHT22;55274;43.060;25.618;2023-06-22T01:17:52;20.10;99.90
68354;DHT22;55274;43.060;25.618;2023-06-22T01:20:20;20.10;99.90
68354;DHT22;55274;43.060;25.618;2023-06-22T01:28:46;20.00;99.90
68354;DHT22;55274;43.060;25.618;2023-06-22T01:31:16;20.00;99.90
68354;DHT22;55274;43.060;25.618;2023-06-22T01:33:44;20.00;99.90
68354;DHT22;55274;43.060;25.618;2023-06-22T01:36:10;20.00;99.90
68354;DHT22;55274;43.060;25.618;2023-06-22T01:38:37;19.90;99.90
68354;DHT22;55274;43.060;25.618;2023-06-22T01:41:04;19.90;99.90
68354;DHT22;55274;43.060;25.618;2023-06-22T01:43:30;19.90;99.90
68354;DHT22;55274;43.060;25.618;2023-06-22T01:45:58;19.90;99.90
68354;DHT22;55274;43.060;25.618;2023-06-22T01:48:24;19.90;99.90
68354;DHT22;55274;43.060;25.618;2023-06-22T01:50:52;19.80;99.90
68354;DHT22;55274;43.060;25.618;2023-06-22T01:53:21;19.80;99.90
68354;DHT22;55274;43.060;25.618;2023-06-22T01:55:47;19.80;99.90
68354;DHT22;55274;43.060;25.618;2023-06-22T01:58:13;19.80;99.90
68354;DHT22;55274;43.060;25.618;2023-06-22T02:00:42;19.80;99.90
68354;DHT22;55274;43.060;25.618;2023-06-22T02:03:17;19.80;99.90
68354;DHT22;55274;43.060;25.618;2023-06-22T02:05:55;19.70;99.90
68354;DHT22;55274;43.060;25.618;2023-06-22T02:08:29;19.70;99.90
68354;DHT22;55274;43.060;25.618;2023-06-22T02:10:58;19.60;99.90
68354;DHT22;55274;43.060;25.618;2023-06-22T02:13:25;19.70;99.90
68354;DHT22;55274;43.060;25.618;2023-06-22T02:15:52;19.60;99.90
68354;DHT22;55274;43.060;25.618;2023-06-22T02:18:18;19.60;99.90
68354;DHT22;55274;43.060;25.618;2023-06-22T02:20:45;19.60;99.90
68354;DHT22;55274;43.060;25.618;2023-06-22T02:23:11;19.60;99.90
68354;DHT22;55274;43.060;25.618;2023-06-22T02:25:37;19.50;99.90
68354;DHT22;55274;43.060;25.618;2023-06-22T02:28:03;19.50;99.90
68354;DHT22;55274;43.060;25.618;2023-06-22T02:30:29;19.50;99.90
68354;DHT22;55274;43.060;25.618;2023-06-22T02:32:55;19.50;99.90
68354;DHT22;55274;43.060;25.618;2023-06-22T02:35:28;19.40;99.90
68354;DHT22;55274;43.060;25.618;2023-06-22T02:38:01;19.40;99.90
68354;DHT22;55274;43.060;25.618;2023-06-22T02:40:27;19.40;99.90
68354;DHT22;55274;43.060;25.618;2023-06-22T02:42:54;19.50;99.90
68354;DHT22;55274;43.060;25.618;2023-06-22T02:45:20;19.50;99.90
68354;DHT22;55274;43.060;25.618;2023-06-22T02:47:46;19.50;99.90
68354;DHT22;55274;43.060;25.618;2023-06-22T02:50:13;19.50;99.90
68354;DHT22;55274;43.060;25.618;2023-06-22T02:52:39;19.50;99.90
68354;DHT22;55274;43.060;25.618;2023-06-22T02:55:06;19.50;99.90
68354;DHT22;55274;43.060;25.618;2023-06-22T02:57:32;19.50;99.90
68354;DHT22;55274;43.060;25.618;2023-06-22T02:59:59;19.40;99.90
68354;DHT22;55274;43.060;25.618;2023-06-22T03:02:25;19.40;99.90
68354;DHT22;55274;43.060;25.618;2023-06-22T03:04:52;19.40;99.90
68354;DHT22;55274;43.060;25.618;2023-06-22T03:07:20;19.50;99.90
68354;DHT22;55274;43.060;25.618;2023-06-22T03:09:46;19.40;99.90
68354;DHT22;55274;43.060;25.618;2023-06-22T03:12:12;19.50;99.90
68354;DHT22;55274;43.060;25.618;2023-06-22T03:14:37;19.50;99.90
68354;DHT22;55274;43.060;25.618;2023-06-22T03:17:04;19.50;99.90
68354;DHT22;55274;43.060;25.618;2023-06-22T03:19:30;19.60;99.90
68354;DHT22;55274;43.060;25.618;2023-06-22T03:21:59;19.60;99.90
68354;DHT22;55274;43.060;25.618;2023-06-22T03:24:25;19.60;99.90
68354;DHT22;55274;43.060;25.618;2023-06-22T03:26:50;19.60;99.90
68354;DHT22;55274;43.060;25.618;2023-06-22T03:29:16;19.60;99.90
68354;DHT22;55274;43.060;25.618;2023-06-22T03:31:42;19.60;99.90
68354;DHT22;55274;43.060;25.618;2023-06-22T03:34:08;19.60;99.90
68354;DHT22;55274;43.060;25.618;2023-06-22T03:36:33;19.60;99.90
68354;DHT22;55274;43.060;25.618;2023-06-22T03:38:59;19.70;99.90
68354;DHT22;55274;43.060;25.618;2023-06-22T03:41:25;19.70;99.90
68354;DHT22;55274;43.060;25.618;2023-06-22T03:43:51;19.80;99.90
68354;DHT22;55274;43.060;25.618;2023-06-22T03:46:17;19.90;99.90
68354;DHT22;55274;43.060;25.618;2023-06-22T03:48:43;19.90;99.90
68354;DHT22;55274;43.060;25.618;2023-06-22T03:51:08;19.90;99.90
68354;DHT22;55274;43.060;25.618;2023-06-22T03:53:35;19.90;99.90
68354;DHT22;55274;43.060;25.618;2023-06-22T03:56:00;19.90;99.90
68354;DHT22;55274;43.060;25.618;2023-06-22T03:58:26;19.90;99.90
68354;DHT22;55274;43.060;25.618;2023-06-22T04:00:54;20.20;99.90
68354;DHT22;55274;43.060;25.618;2023-06-22T04:03:20;20.70;99.90
68354;DHT22;55274;43.060;25.618;2023-06-22T04:05:46;21.20;99.90
68354;DHT22;55274;43.060;25.618;2023-06-22T04:08:13;21.70;99.90
68354;DHT22;55274;43.060;25.618;2023-06-22T04:10:39;22.10;99.90
68354;DHT22;55274;43.060;25.618;2023-06-22T04:13:05;22.80;99.90
68354;DHT22;55274;43.060;25.618;2023-06-22T04:15:31;23.50;99.90
68354;DHT22;55274;43.060;25.618;2023-06-22T04:17:57;24.00;99.90
68354;DHT22;55274;43.060;25.618;2023-06-22T04:20:23;24.30;99.90
68354;DHT22;55274;43.060;25.618;2023-06-22T04:22:53;24.80;99.90
68354;DHT22;55274;43.060;25.618;2023-06-22T04:25:19;25.30;99.90
68354;DHT22;55274;43.060;25.618;2023-06-22T04:27:45;25.80;99.90
68354;DHT22;55274;43.060;25.618;2023-06-22T04:30:11;26.20;99.70
68354;DHT22;55274;43.060;25.618;2023-06-22T04:32:42;26.50;96.80
68354;DHT22;55274;43.060;25.618;2023-06-22T04:35:08;26.90;95.90
68354;DHT22;55274;43.060;25.618;2023-06-22T04:37:34;27.10;94.00
68354;DHT22;55274;43.060;25.618;2023-06-22T04:40:00;27.20;92.30
68354;DHT22;55274;43.060;25.618;2023-06-22T04:42:28;27.20;91.30
68354;DHT22;55274;43.060;25.618;2023-06-22T04:44:54;27.20;91.90
68354;DHT22;55274;43.060;25.618;2023-06-22T04:47:20;27.50;91.10
68354;DHT22;55274;43.060;25.618;2023-06-22T04:49:46;27.80;90.30
68354;DHT22;55274;43.060;25.618;2023-06-22T04:52:12;28.10;89.00
68354;DHT22;55274;43.060;25.618;2023-06-22T04:54:40;28.30;87.70
68354;DHT22;55274;43.060;25.618;2023-06-22T04:57:13;28.70;86.00
68354;DHT22;55274;43.060;25.618;2023-06-22T04:59:41;28.90;84.10
68354;DHT22;55274;43.060;25.618;2023-06-22T05:02:07;29.00;82.60
68354;DHT22;55274;43.060;25.618;2023-06-22T05:04:34;28.90;82.40
68354;DHT22;55274;43.060;25.618;2023-06-22T05:07:02;28.90;81.50
68354;DHT22;55274;43.060;25.618;2023-06-22T05:09:29;28.90;80.40
68354;DHT22;55274;43.060;25.618;2023-06-22T05:11:55;29.20;80.30
68354;DHT22;55274;43.060;25.618;2023-06-22T05:14:25;29.30;80.30
68354;DHT22;55274;43.060;25.618;2023-06-22T05:16:51;29.60;79.40
68354;DHT22;55274;43.060;25.618;2023-06-22T05:19:17;29.50;76.80
68354;DHT22;55274;43.060;25.618;2023-06-22T05:21:43;29.70;78.20
68354;DHT22;55274;43.060;25.618;2023-06-22T05:24:09;29.90;77.00
68354;DHT22;55274;43.060;25.618;2023-06-22T05:26:35;29.80;75.80
68354;DHT22;55274;43.060;25.618;2023-06-22T05:29:02;29.60;76.30
68354;DHT22;55274;43.060;25.618;2023-06-22T05:31:28;29.50;78.10
68354;DHT22;55274;43.060;25.618;2023-06-22T05:33:55;29.70;76.80
68354;DHT22;55274;43.060;25.618;2023-06-22T05:36:21;29.70;78.40
68354;DHT22;55274;43.060;25.618;2023-06-22T05:38:49;29.90;77.60
68354;DHT22;55274;43.060;25.618;2023-06-22T05:41:15;29.70;74.90
68354;DHT22;55274;43.060;25.618;2023-06-22T05:43:42;29.90;74.40
68354;DHT22;55274;43.060;25.618;2023-06-22T05:46:08;29.80;73.90
68354;DHT22;55274;43.060;25.618;2023-06-22T05:48:33;29.90;74.60
68354;DHT22;55274;43.060;25.618;2023-06-22T05:51:00;30.00;74.10
68354;DHT22;55274;43.060;25.618;2023-06-22T05:53:26;30.20;73.20
68354;DHT22;55274;43.060;25.618;2023-06-22T05:55:51;30.20;74.00
68354;DHT22;55274;43.060;25.618;2023-06-22T05:58:17;30.10;73.90
68354;DHT22;55274;43.060;25.618;2023-06-22T06:00:43;30.50;75.10
68354;DHT22;55274;43.060;25.618;2023-06-22T06:03:10;30.40;74.60
68354;DHT22;55274;43.060;25.618;2023-06-22T06:05:36;30.40;74.70
68354;DHT22;55274;43.060;25.618;2023-06-22T06:08:05;30.40;73.00
68354;DHT22;55274;43.060;25.618;2023-06-22T06:10:32;30.40;74.40
68354;DHT22;55274;43.060;25.618;2023-06-22T06:12:59;30.50;73.20
68354;DHT22;55274;43.060;25.618;2023-06-22T06:15:27;30.40;73.30
68354;DHT22;55274;43.060;25.618;2023-06-22T06:17:53;30.60;72.00
68354;DHT22;55274;43.060;25.618;2023-06-22T06:20:21;30.90;72.30
68354;DHT22;55274;43.060;25.618;2023-06-22T06:22:47;31.00;70.80
68354;DHT22;55274;43.060;25.618;2023-06-22T06:25:13;31.00;71.80
68354;DHT22;55274;43.060;25.618;2023-06-22T06:27:46;30.80;71.90
68354;DHT22;55274;43.060;25.618;2023-06-22T06:30:13;31.00;71.50
68354;DHT22;55274;43.060;25.618;2023-06-22T06:32:40;30.90;72.60
68354;DHT22;55274;43.060;25.618;2023-06-22T06:35:07;30.90;69.70
68354;DHT22;55274;43.060;25.618;2023-06-22T06:37:36;31.00;71.10
68354;DHT22;55274;43.060;25.618;2023-06-22T06:40:07;31.00;69.70
68354;DHT22;55274;43.060;25.618;2023-06-22T06:42:46;31.00;68.50
68354;DHT22;55274;43.060;25.618;2023-06-22T06:45:16;31.20;67.60
68354;DHT22;55274;43.060;25.618;2023-06-22T06:47:42;31.20;68.60
68354;DHT22;55274;43.060;25.618;2023-06-22T06:50:09;31.20;68.00
68354;DHT22;55274;43.060;25.618;2023-06-22T06:52:35;31.30;68.70
68354;DHT22;55274;43.060;25.618;2023-06-22T06:55:01;31.40;66.90
68354;DHT22;55274;43.060;25.618;2023-06-22T06:57:30;31.50;66.80
68354;DHT22;55274;43.060;25.618;2023-06-22T06:59:56;31.50;66.30
68354;DHT22;55274;43.060;25.618;2023-06-22T07:02:23;31.50;66.80
68354;DHT22;55274;43.060;25.618;2023-06-22T07:04:49;31.60;67.30
68354;DHT22;55274;43.060;25.618;2023-06-22T07:07:15;31.70;65.70
68354;DHT22;55274;43.060;25.618;2023-06-22T07:09:41;31.90;66.50
68354;DHT22;55274;43.060;25.618;2023-06-22T07:12:07;32.10;65.40
68354;DHT22;55274;43.060;25.618;2023-06-22T07:14:33;32.10;65.10
68354;DHT22;55274;43.060;25.618;2023-06-22T07:16:59;32.30;63.30
68354;DHT22;55274;43.060;25.618;2023-06-22T07:19:25;32.50;63.30
68354;DHT22;55274;43.060;25.618;2023-06-22T07:21:54;32.50;63.70
68354;DHT22;55274;43.060;25.618;2023-06-22T07:24:21;32.40;63.00
68354;DHT22;55274;43.060;25.618;2023-06-22T07:26:50;32.60;62.00
68354;DHT22;55274;43.060;25.618;2023-06-22T07:29:20;32.70;61.80
68354;DHT22;55274;43.060;25.618;2023-06-22T07:31:47;32.70;61.10
68354;DHT22;55274;43.060;25.618;2023-06-22T07:34:13;32.90;61.10
68354;DHT22;55274;43.060;25.618;2023-06-22T07:36:39;33.00;61.60
68354;DHT22;55274;43.060;25.618;2023-06-22T07:39:05;33.20;61.30
68354;DHT22;55274;43.060;25.618;2023-06-22T07:41:32;33.50;60.70
68354;DHT22;55274;43.060;25.618;2023-06-22T07:43:58;33.70;59.50
68354;DHT22;55274;43.060;25.618;2023-06-22T07:46:24;33.60;58.30
68354;DHT22;55274;43.060;25.618;2023-06-22T07:48:49;33.60;60.20
68354;DHT22;55274;43.060;25.618;2023-06-22T07:51:15;33.60;58.40
68354;DHT22;55274;43.060;25.618;2023-06-22T07:53:42;33.60;58.40
68354;DHT22;55274;43.060;25.618;2023-06-22T07:56:11;33.70;58.40
68354;DHT22;55274;43.060;25.618;2023-06-22T07:58:37;33.70;59.10
68354;DHT22;55274;43.060;25.618;2023-06-22T08:01:03;33.40;58.90
68354;DHT22;55274;43.060;25.618;2023-06-22T08:03:29;33.00;60.00
68354;DHT22;55274;43.060;25.618;2023-06-22T08:05:55;33.40;59.60
68354;DHT22;55274;43.060;25.618;2023-06-22T08:08:21;33.70;57.90
68354;DHT22;55274;43.060;25.618;2023-06-22T08:10:47;34.00;58.40
68354;DHT22;55274;43.060;25.618;2023-06-22T08:13:12;34.20;58.40
68354;DHT22;55274;43.060;25.618;2023-06-22T08:15:38;34.20;56.60
68354;DHT22;55274;43.060;25.618;2023-06-22T08:18:04;34.10;56.90
68354;DHT22;55274;43.060;25.618;2023-06-22T08:20:30;34.20;57.70
68354;DHT22;55274;43.060;25.618;2023-06-22T08:22:56;34.40;56.50
68354;DHT22;55274;43.060;25.618;2023-06-22T08:25:24;34.40;55.70
68354;DHT22;55274;43.060;25.618;2023-06-22T08:27:49;34.50;56.10
68354;DHT22;55274;43.060;25.618;2023-06-22T08:30:16;34.70;54.20
68354;DHT22;55274;43.060;25.618;2023-06-22T08:32:43;34.90;53.60
68354;DHT22;55274;43.060;25.618;2023-06-22T08:35:09;35.00;52.70
68354;DHT22;55274;43.060;25.618;2023-06-22T08:37:36;35.00;53.00
68354;DHT22;55274;43.060;25.618;2023-06-22T08:40:04;35.00;51.90
68354;DHT22;55274;43.060;25.618;2023-06-22T08:42:36;35.00;51.80
68354;DHT22;55274;43.060;25.618;2023-06-22T08:45:02;35.30;52.40
68354;DHT22;55274;43.060;25.618;2023-06-22T08:47:28;35.50;50.80
68354;DHT22;55274;43.060;25.618;2023-06-22T08:49:54;35.60;51.80
68354;DHT22;55274;43.060;25.618;2023-06-22T08:52:20;35.50;51.30
68354;DHT22;55274;43.060;25.618;2023-06-22T08:54:47;35.50;50.60
68354;DHT22;55274;43.060;25.618;2023-06-22T08:57:13;35.70;51.10
68354;DHT22;55274;43.060;25.618;2023-06-22T08:59:39;35.70;50.60
68354;DHT22;55274;43.060;25.618;2023-06-22T09:02:05;35.80;51.00
68354;DHT22;55274;43.060;25.618;2023-06-22T09:04:31;35.90;50.20
68354;DHT22;55274;43.060;25.618;2023-06-22T09:07:01;35.90;48.00
68354;DHT22;55274;43.060;25.618;2023-06-22T09:09:27;35.90;48.00
68354;DHT22;55274;43.060;25.618;2023-06-22T09:11:53;36.00;48.10
68354;DHT22;55274;43.060;25.618;2023-06-22T09:14:18;36.20;49.10
68354;DHT22;55274;43.060;25.618;2023-06-22T09:16:44;36.10;48.00
68354;DHT22;55274;43.060;25.618;2023-06-22T09:19:10;36.10;47.00
68354;DHT22;55274;43.060;25.618;2023-06-22T09:21:36;36.10;46.60
68354;DHT22;55274;43.060;25.618;2023-06-22T09:24:02;36.20;46.00
68354;DHT22;55274;43.060;25.618;2023-06-22T09:26:28;36.30;47.20
68354;DHT22;55274;43.060;25.618;2023-06-22T09:28:54;36.10;45.90
68354;DHT22;55274;43.060;25.618;2023-06-22T09:31:20;35.90;46.50
68354;DHT22;55274;43.060;25.618;2023-06-22T09:33:53;35.90;46.50
68354;DHT22;55274;43.060;25.618;2023-06-22T09:36:20;36.00;47.20
68354;DHT22;55274;43.060;25.618;2023-06-22T09:38:46;36.30;46.40
68354;DHT22;55274;43.060;25.618;2023-06-22T09:41:12;36.50;46.90
68354;DHT22;55274;43.060;25.618;2023-06-22T09:43:37;36.50;46.90
68354;DHT22;55274;43.060;25.618;2023-06-22T09:46:03;36.50;47.00
68354;DHT22;55274;43.060;25.618;2023-06-22T09:48:29;36.10;47.00
68354;DHT22;55274;43.060;25.618;2023-06-22T09:50:56;36.20;47.20
68354;DHT22;55274;43.060;25.618;2023-06-22T09:53:22;36.30;45.80
68354;DHT22;55274;43.060;25.618;2023-06-22T09:55:47;36.50;45.90
68354;DHT22;55274;43.060;25.618;2023-06-22T09:58:13;36.50;46.60
68354;DHT22;55274;43.060;25.618;2023-06-22T10:00:39;36.20;46.80
68354;DHT22;55274;43.060;25.618;2023-06-22T10:03:07;35.90;47.20
68354;DHT22;55274;43.060;25.618;2023-06-22T10:05:33;35.80;46.00
68354;DHT22;55274;43.060;25.618;2023-06-22T10:07:59;36.00;48.00
68354;DHT22;55274;43.060;25.618;2023-06-22T10:10:24;36.00;47.20
68354;DHT22;55274;43.060;25.618;2023-06-22T10:12:57;36.40;47.30
68354;DHT22;55274;43.060;25.618;2023-06-22T10:15:28;36.50;45.40
68354;DHT22;55274;43.060;25.618;2023-06-22T10:17:53;36.50;45.90
68354;DHT22;55274;43.060;25.618;2023-06-22T10:20:19;36.50;46.70
68354;DHT22;55274;43.060;25.618;2023-06-22T10:22:46;36.50;45.90
68354;DHT22;55274;43.060;25.618;2023-06-22T10:25:13;36.30;46.40
68354;DHT22;55274;43.060;25.618;2023-06-22T10:27:39;35.90;48.30
68354;DHT22;55274;43.060;25.618;2023-06-22T10:30:09;35.30;48.10
68354;DHT22;55274;43.060;25.618;2023-06-22T10:32:35;34.90;49.90
68354;DHT22;55274;43.060;25.618;2023-06-22T10:35:02;34.60;50.30
68354;DHT22;55274;43.060;25.618;2023-06-22T10:37:28;34.60;52.30
68354;DHT22;55274;43.060;25.618;2023-06-22T10:39:53;34.90;47.60
68354;DHT22;55274;43.060;25.618;2023-06-22T10:42:19;34.70;48.30
68354;DHT22;55274;43.060;25.618;2023-06-22T10:44:45;35.10;47.70
68354;DHT22;55274;43.060;25.618;2023-06-22T10:47:11;35.30;46.80
68354;DHT22;55274;43.060;25.618;2023-06-22T10:49:38;35.80;45.10
68354;DHT22;55274;43.060;25.618;2023-06-22T10:52:06;36.30;44.70
68354;DHT22;55274;43.060;25.618;2023-06-22T10:54:32;36.10;42.00
68354;DHT22;55274;43.060;25.618;2023-06-22T10:56:59;36.10;44.40
68354;DHT22;55274;43.060;25.618;2023-06-22T10:59:25;36.30;43.60
68354;DHT22;55274;43.060;25.618;2023-06-22T11:01:52;36.00;46.10
68354;DHT22;55274;43.060;25.618;2023-06-22T11:04:18;35.00;46.80
68354;DHT22;55274;43.060;25.618;2023-06-22T11:06:44;34.70;49.20
68354;DHT22;55274;43.060;25.618;2023-06-22T11:09:09;34.50;46.20
68354;DHT22;55274;43.060;25.618;2023-06-22T11:11:35;34.30;45.80
68354;DHT22;55274;43.060;25.618;2023-06-22T11:14:01;34.10;46.60
68354;DHT22;55274;43.060;25.618;2023-06-22T11:16:27;34.10;50.10
68354;DHT22;55274;43.060;25.618;2023-06-22T11:18:53;34.40;51.70
68354;DHT22;55274;43.060;25.618;2023-06-22T11:21:19;34.60;48.70
68354;DHT22;55274;43.060;25.618;2023-06-22T11:23:45;34.40;56.00
68354;DHT22;55274;43.060;25.618;2023-06-22T11:26:11;33.90;52.70
68354;DHT22;55274;43.060;25.618;2023-06-22T11:28:36;33.80;55.60
68354;DHT22;55274;43.060;25.618;2023-06-22T11:31:03;33.60;56.50
68354;DHT22;55274;43.060;25.618;2023-06-22T11:33:29;33.40;56.40
68354;DHT22;55274;43.060;25.618;2023-06-22T11:35:54;33.60;56.90
68354;DHT22;55274;43.060;25.618;2023-06-22T11:38:22;33.80;58.20
68354;DHT22;55274;43.060;25.618;2023-06-22T11:40:47;34.10;58.20
68354;DHT22;55274;43.060;25.618;2023-06-22T11:43:13;34.40;52.90
68354;DHT22;55274;43.060;25.618;2023-06-22T11:45:40;34.60;46.80
68354;DHT22;55274;43.060;25.618;2023-06-22T11:48:06;34.50;44.20
68354;DHT22;55274;43.060;25.618;2023-06-22T11:50:32;34.60;45.30
68354;DHT22;55274;43.060;25.618;2023-06-22T11:53:02;34.90;44.60
68354;DHT22;55274;43.060;25.618;2023-06-22T11:55:29;35.20;43.10
68354;DHT22;55274;43.060;25.618;2023-06-22T11:57:56;35.20;42.00
68354;DHT22;55274;43.060;25.618;2023-06-22T12:00:24;35.10;42.60
68354;DHT22;55274;43.060;25.618;2023-06-22T12:02:50;35.00;42.30
68354;DHT22;55274;43.060;25.618;2023-06-22T12:05:19;35.00;42.80
68354;DHT22;55274;43.060;25.618;2023-06-22T12:07:46;35.10;42.70
68354;DHT22;55274;43.060;25.618;2023-06-22T12:10:12;35.50;43.20
68354;DHT22;55274;43.060;25.618;2023-06-22T12:12:38;35.60;40.80
68354;DHT22;55274;43.060;25.618;2023-06-22T12:15:04;35.90;40.80
68354;DHT22;55274;43.060;25.618;2023-06-22T12:17:31;35.90;40.80
68354;DHT22;55274;43.060;25.618;2023-06-22T12:19:58;35.80;40.40
68354;DHT22;55274;43.060;25.618;2023-06-22T12:22:24;36.10;41.90
68354;DHT22;55274;43.060;25.618;2023-06-22T12:24:49;36.20;41.10
68354;DHT22;55274;43.060;25.618;2023-06-22T12:27:17;36.30;41.40
68354;DHT22;55274;43.060;25.618;2023-06-22T12:29:45;36.30;41.30
68354;DHT22;55274;43.060;25.618;2023-06-22T12:32:11;36.30;41.60
68354;DHT22;55274;43.060;25.618;2023-06-22T12:34:42;36.40;41.10
68354;DHT22;55274;43.060;25.618;2023-06-22T12:37:08;36.40;41.20
68354;DHT22;55274;43.060;25.618;2023-06-22T12:39:34;36.30;41.30
68354;DHT22;55274;43.060;25.618;2023-06-22T12:42:00;36.10;39.70
68354;DHT22;55274;43.060;25.618;2023-06-22T12:44:26;36.00;40.20
68354;DHT22;55274;43.060;25.618;2023-06-22T12:46:51;35.90;40.00
68354;DHT22;55274;43.060;25.618;2023-06-22T12:49:17;35.80;41.40
68354;DHT22;55274;43.060;25.618;2023-06-22T12:51:44;35.80;40.50
68354;DHT22;55274;43.060;25.618;2023-06-22T12:54:10;35.90;40.50
68354;DHT22;55274;43.060;25.618;2023-06-22T12:56:37;35.90;39.90
68354;DHT22;55274;43.060;25.618;2023-06-22T12:59:06;36.00;41.40
68354;DHT22;55274;43.060;25.618;2023-06-22T13:01:32;36.10;41.40
68354;DHT22;55274;43.060;25.618;2023-06-22T13:03:58;36.30;41.40
68354;DHT22;55274;43.060;25.618;2023-06-22T13:06:25;36.40;40.10
68354;DHT22;55274;43.060;25.618;2023-06-22T13:08:50;36.40;39.70
68354;DHT22;55274;43.060;25.618;2023-06-22T13:11:16;36.50;40.30
68354;DHT22;55274;43.060;25.618;2023-06-22T13:13:44;36.50;39.10
68354;DHT22;55274;43.060;25.618;2023-06-22T13:16:10;36.10;40.20
68354;DHT22;55274;43.060;25.618;2023-06-22T13:18:35;36.00;40.70
68354;DHT22;55274;43.060;25.618;2023-06-22T13:21:03;35.50;41.00
68354;DHT22;55274;43.060;25.618;2023-06-22T13:23:29;35.30;42.50
68354;DHT22;55274;43.060;25.618;2023-06-22T13:25:55;34.90;39.40
68354;DHT22;55274;43.060;25.618;2023-06-22T13:28:21;34.80;40.90
68354;DHT22;55274;43.060;25.618;2023-06-22T13:30:47;34.90;40.10
68354;DHT22;55274;43.060;25.618;2023-06-22T13:33:13;35.00;40.20
68354;DHT22;55274;43.060;25.618;2023-06-22T13:35:39;35.00;41.40
68354;DHT22;55274;43.060;25.618;2023-06-22T13:38:08;35.20;42.90
68354;DHT22;55274;43.060;25.618;2023-06-22T13:40:34;35.20;42.60
68354;DHT22;55274;43.060;25.618;2023-06-22T13:43:00;34.90;41.50
68354;DHT22;55274;43.060;25.618;2023-06-22T13:45:26;34.60;42.90
68354;DHT22;55274;43.060;25.618;2023-06-22T13:47:52;34.40;44.30
68354;DHT22;55274;43.060;25.618;2023-06-22T13:50:18;34.60;43.60
68354;DHT22;55274;43.060;25.618;2023-06-22T13:52:44;34.80;42.20
68354;DHT22;55274;43.060;25.618;2023-06-22T13:55:10;34.40;42.40
68354;DHT22;55274;43.060;25.618;2023-06-22T13:57:36;34.30;43.00
68354;DHT22;55274;43.060;25.618;2023-06-22T14:00:04;34.30;46.00
68354;DHT22;55274;43.060;25.618;2023-06-22T14:02:34;33.90;49.30
68354;DHT22;55274;43.060;25.618;2023-06-22T14:05:00;33.60;48.70
68354;DHT22;55274;43.060;25.618;2023-06-22T14:07:26;33.50;48.90
68354;DHT22;55274;43.060;25.618;2023-06-22T14:09:51;33.60;49.40
68354;DHT22;55274;43.060;25.618;2023-06-22T14:12:17;33.70;50.60
68354;DHT22;55274;43.060;25.618;2023-06-22T14:14:43;33.50;50.70
68354;DHT22;55274;43.060;25.618;2023-06-22T14:17:10;33.40;51.60
68354;DHT22;55274;43.060;25.618;2023-06-22T14:19:36;33.50;50.70
68354;DHT22;55274;43.060;25.618;2023-06-22T14:22:02;33.50;50.60
68354;DHT22;55274;43.060;25.618;2023-06-22T14:24:28;33.60;52.90
68354;DHT22;55274;43.060;25.618;2023-06-22T14:26:54;33.50;51.20
68354;DHT22;55274;43.060;25.618;2023-06-22T14:29:21;33.50;50.40
68354;DHT22;55274;43.060;25.618;2023-06-22T14:31:47;33.40;50.80
68354;DHT22;55274;43.060;25.618;2023-06-22T14:34:13;33.50;51.40
68354;DHT22;55274;43.060;25.618;2023-06-22T14:36:39;33.50;49.70
68354;DHT22;55274;43.060;25.618;2023-06-22T14:39:05;33.60;49.20
68354;DHT22;55274;43.060;25.618;2023-06-22T14:41:31;33.70;46.80
68354;DHT22;55274;43.060;25.618;2023-06-22T14:43:57;33.70;48.70
68354;DHT22;55274;43.060;25.618;2023-06-22T14:46:23;33.70;48.80
68354;DHT22;55274;43.060;25.618;2023-06-22T14:48:49;33.60;47.80
68354;DHT22;55274;43.060;25.618;2023-06-22T14:51:15;33.60;47.90
68354;DHT22;55274;43.060;25.618;2023-06-22T14:53:42;33.40;48.80
68354;DHT22;55274;43.060;25.618;2023-06-22T14:56:08;33.20;47.60
68354;DHT22;55274;43.060;25.618;2023-06-22T14:58:34;33.00;48.40
68354;DHT22;55274;43.060;25.618;2023-06-22T15:01:02;33.00;48.50
68354;DHT22;55274;43.060;25.618;2023-06-22T15:03:29;33.00;49.60
68354;DHT22;55274;43.060;25.618;2023-06-22T15:05:56;33.10;48.60
68354;DHT22;55274;43.060;25.618;2023-06-22T15:08:22;33.20;49.10
68354;DHT22;55274;43.060;25.618;2023-06-22T15:10:48;33.20;49.00
68354;DHT22;55274;43.060;25.618;2023-06-22T15:13:14;33.10;49.70
68354;DHT22;55274;43.060;25.618;2023-06-22T15:15:39;33.00;49.50
68354;DHT22;55274;43.060;25.618;2023-06-22T15:18:05;32.90;49.10
68354;DHT22;55274;43.060;25.618;2023-06-22T15:20:31;32.90;50.40
68354;DHT22;55274;43.060;25.618;2023-06-22T15:22:57;32.80;52.30